createdAt,value
2022-10-20T00:00:08.468Z,3.40
2022-10-20T00:02:10.615Z,3.50
2022-10-20T00:04:12.234Z,3.10
2022-10-20T00:06:23.145Z,3.00
2022-10-20T00:08:24.839Z,3.13
2022-10-20T00:10:26.320Z,3.10
2022-10-20T00:12:28.124Z,2.75
2022-10-20T00:14:29.738Z,3.33
2022-10-20T00:16:34.690Z,3.45
2022-10-20T00:18:36.742Z,2.72
2022-10-20T00:20:39.897Z,3.00
2022-10-20T00:22:41.695Z,3.10
2022-10-20T00:24:43.612Z,2.75
2022-10-20T00:26:45.258Z,3.03
2022-10-20T00:28:47.249Z,2.80
2022-10-20T00:30:55.055Z,3.13
2022-10-20T00:32:56.927Z,3.05
2022-10-20T00:34:58.580Z,3.17
2022-10-20T00:37:00.334Z,2.85
2022-10-20T00:39:04.580Z,3.38
2022-10-20T00:41:06.710Z,3.10
2022-10-20T00:43:13.554Z,3.65
2022-10-20T00:45:18.779Z,3.40
2022-10-20T00:47:30.569Z,3.72
2022-10-20T00:49:32.235Z,3.50
2022-10-20T00:51:34.571Z,3.50
2022-10-20T00:53:36.158Z,3.38
2022-10-20T00:55:41.862Z,3.22
2022-10-20T00:57:47.658Z,3.40
2022-10-20T00:59:49.404Z,3.63
2022-10-20T01:01:51.317Z,3.55
2022-10-20T01:03:53.252Z,3.10
2022-10-20T01:05:54.910Z,3.50
2022-10-20T01:07:56.606Z,3.28
2022-10-20T01:09:58.381Z,3.45
2022-10-20T01:12:14.178Z,3.40
2022-10-20T01:14:25.319Z,3.72
2022-10-20T01:16:54.440Z,3.22
2022-10-20T01:19:13.119Z,3.42
2022-10-20T01:21:14.845Z,3.20
2022-10-20T01:23:39.112Z,3.35
2022-10-20T01:26:18.051Z,3.08
2022-10-20T01:28:25.354Z,2.97
2022-10-20T01:30:26.985Z,2.88
2022-10-20T01:32:46.508Z,2.90
2022-10-20T01:34:58.934Z,2.80
2022-10-20T01:37:28.362Z,2.95
2022-10-20T01:39:48.781Z,2.75
2022-10-20T01:41:56.543Z,2.95
2022-10-20T01:44:01.291Z,2.83
2022-10-20T01:46:04.448Z,3.20
2022-10-20T01:48:07.934Z,3.20
2022-10-20T01:50:11.492Z,2.88
2022-10-20T01:52:13.803Z,2.70
2022-10-20T01:54:27.190Z,2.90
2022-10-20T01:56:53.651Z,3.20
2022-10-20T01:59:25.201Z,2.70
2022-10-20T02:01:57.943Z,2.85
2022-10-20T02:04:04.652Z,3.03
2022-10-20T02:06:34.316Z,2.78
2022-10-20T02:08:57.171Z,3.00
2022-10-20T02:11:02.137Z,3.20
2022-10-20T02:13:07.190Z,2.78
2022-10-20T02:15:12.219Z,3.03
2022-10-20T02:17:17.285Z,3.08
2022-10-20T02:19:22.856Z,2.92
2022-10-20T02:21:25.347Z,3.13
2022-10-20T02:23:35.181Z,2.95
2022-10-20T02:25:40.793Z,2.88
2022-10-20T02:27:47.700Z,3.15
2022-10-20T02:30:03.141Z,2.95
2022-10-20T02:32:05.962Z,2.80
2022-10-20T02:34:08.571Z,3.05
2022-10-20T02:36:16.689Z,2.72
2022-10-20T02:38:18.395Z,3.50
2022-10-20T02:40:22.060Z,3.60
2022-10-20T02:42:23.674Z,3.50
2022-10-20T02:44:25.187Z,3.67
2022-10-20T02:46:26.990Z,3.72
2022-10-20T02:48:28.638Z,3.25
2022-10-20T02:50:30.278Z,3.10
2022-10-20T02:52:32.007Z,2.92
2022-10-20T02:54:33.888Z,2.90
2022-10-20T02:56:35.463Z,3.03
2022-10-20T02:58:37.248Z,2.72
2022-10-20T03:00:38.827Z,3.00
2022-10-20T03:02:40.475Z,3.00
2022-10-20T03:04:42.067Z,3.03
2022-10-20T03:06:44.149Z,3.13
2022-10-20T03:08:45.799Z,2.58
2022-10-20T03:10:47.240Z,3.08
2022-10-20T03:12:48.963Z,2.67
2022-10-20T03:14:50.502Z,2.97
2022-10-20T03:16:52.137Z,3.22
2022-10-20T03:18:53.848Z,3.10
2022-10-20T03:20:55.552Z,2.90
2022-10-20T03:22:57.303Z,3.25
2022-10-20T03:24:58.844Z,3.00
2022-10-20T03:27:00.383Z,2.88
2022-10-20T03:29:01.874Z,2.70
2022-10-20T03:31:05.014Z,3.20
2022-10-20T03:33:08.817Z,2.97
2022-10-20T03:35:10.641Z,2.40
2022-10-20T03:37:12.380Z,2.40
2022-10-20T03:39:13.960Z,2.38
2022-10-20T03:41:15.497Z,2.40
2022-10-20T03:43:17.219Z,2.70
2022-10-20T03:45:18.835Z,2.70
2022-10-20T03:47:20.554Z,2.92
2022-10-20T03:49:22.226Z,2.80
2022-10-20T03:51:23.965Z,3.50
2022-10-20T03:53:25.771Z,3.05
2022-10-20T03:55:27.296Z,2.95
2022-10-20T03:57:28.849Z,2.90
2022-10-20T03:59:30.624Z,3.10
2022-10-20T04:01:33.582Z,2.70
2022-10-20T04:03:35.241Z,2.92
2022-10-20T04:05:39.556Z,2.83
2022-10-20T04:07:41.320Z,2.85
2022-10-20T04:09:42.808Z,2.75
2022-10-20T04:11:44.775Z,2.90
2022-10-20T04:13:46.399Z,2.65
2022-10-20T04:15:48.083Z,3.30
2022-10-20T04:17:49.673Z,2.90
2022-10-20T04:19:51.296Z,2.85
2022-10-20T04:21:53.044Z,3.38
2022-10-20T04:23:56.254Z,2.92
2022-10-20T04:25:57.835Z,2.83
2022-10-20T04:28:01.176Z,2.88
2022-10-20T04:30:03.017Z,3.50
2022-10-20T04:32:04.904Z,3.13
2022-10-20T04:34:06.562Z,3.13
2022-10-20T04:36:12.050Z,3.53
2022-10-20T04:38:14.266Z,3.55
2022-10-20T04:40:16.023Z,3.50
2022-10-20T04:42:18.678Z,3.75
2022-10-20T04:44:20.210Z,3.45
2022-10-20T04:46:22.028Z,3.65
2022-10-20T04:48:23.495Z,3.88
2022-10-20T04:50:25.077Z,3.60
2022-10-20T04:52:41.225Z,3.33
2022-10-20T04:54:42.794Z,4.07
2022-10-20T04:56:47.609Z,3.42
2022-10-20T04:58:50.819Z,3.35
2022-10-20T05:00:52.482Z,3.30
2022-10-20T05:02:55.255Z,3.25
2022-10-20T05:04:56.674Z,3.00
2022-10-20T05:06:58.398Z,3.47
2022-10-20T05:09:02.610Z,2.88
2022-10-20T05:11:04.580Z,2.95
2022-10-20T05:13:06.367Z,3.35
2022-10-20T05:15:08.129Z,2.95
2022-10-20T05:17:10.162Z,3.08
2022-10-20T05:19:11.899Z,3.00
2022-10-20T05:21:16.743Z,3.13
2022-10-20T05:23:18.565Z,3.05
2022-10-20T05:25:36.815Z,2.90
2022-10-20T05:27:41.981Z,3.08
2022-10-20T05:29:43.727Z,3.20
2022-10-20T05:31:48.042Z,3.60
2022-10-20T05:33:52.245Z,3.15
2022-10-20T05:35:53.994Z,3.17
2022-10-20T05:37:56.126Z,2.95
2022-10-20T05:39:57.701Z,2.90
2022-10-20T05:41:59.339Z,2.60
2022-10-20T05:44:04.407Z,2.78
2022-10-20T05:46:06.370Z,2.92
2022-10-20T05:48:07.970Z,3.00
2022-10-20T05:50:10.236Z,3.20
2022-10-20T05:52:11.994Z,2.55
2022-10-20T05:54:14.260Z,3.17
2022-10-20T05:56:18.820Z,2.95
2022-10-20T05:58:22.932Z,3.13
2022-10-20T06:00:30.806Z,3.05
2022-10-20T06:02:32.737Z,2.90
2022-10-20T06:04:34.286Z,3.30
2022-10-20T06:06:36.344Z,3.30
2022-10-20T06:08:38.483Z,3.22
2022-10-20T06:10:40.063Z,3.30
2022-10-20T06:12:42.798Z,3.40
2022-10-20T06:14:44.514Z,3.83
2022-10-20T06:16:46.310Z,3.88
2022-10-20T06:18:48.100Z,3.63
2022-10-20T06:20:59.316Z,3.85
2022-10-20T06:23:00.885Z,4.05
2022-10-20T06:25:04.326Z,4.13
2022-10-20T06:27:06.022Z,4.47
2022-10-20T06:29:11.610Z,3.67
2022-10-20T06:31:31.552Z,3.95
2022-10-20T06:33:33.203Z,3.58
2022-10-20T06:35:34.831Z,3.53
2022-10-20T06:37:36.384Z,3.70
2022-10-20T06:39:38.138Z,3.78
2022-10-20T06:41:39.982Z,3.95
2022-10-20T06:43:49.226Z,4.07
2022-10-20T06:45:58.580Z,3.72
2022-10-20T06:48:00.334Z,3.30
2022-10-20T06:50:01.948Z,3.47
2022-10-20T06:52:04.090Z,3.72
2022-10-20T06:54:06.035Z,4.00
2022-10-20T06:56:11.860Z,3.83
2022-10-20T06:58:13.453Z,3.55
2022-10-20T07:00:15.348Z,3.95
2022-10-20T07:02:17.333Z,3.95
2022-10-20T07:04:18.912Z,4.13
2022-10-20T07:06:29.474Z,4.22
2022-10-20T07:08:34.473Z,3.78
2022-10-20T07:10:36.192Z,3.58
2022-10-20T07:12:38.351Z,3.90
2022-10-20T07:14:40.529Z,3.95
2022-10-20T07:16:42.301Z,3.58
2022-10-20T07:20:51.268Z,5.13
2022-10-20T07:22:52.976Z,5.22
2022-10-20T07:24:54.709Z,4.78
2022-10-20T07:26:56.958Z,5.22
2022-10-20T07:29:02.976Z,5.15
2022-10-20T07:31:07.402Z,5.00
2022-10-20T07:33:09.788Z,4.75
2022-10-20T07:35:11.426Z,4.78
2022-10-20T07:37:13.551Z,4.70
2022-10-20T07:39:15.243Z,4.45
2022-10-20T07:41:17.216Z,4.25
2022-10-20T07:43:19.344Z,4.10
2022-10-20T07:45:21.335Z,4.28
2022-10-20T07:47:23.054Z,4.15
2022-10-20T07:49:43.536Z,6.65
2022-10-20T07:51:46.516Z,6.30
2022-10-20T07:53:56.898Z,5.28
2022-10-20T07:56:01.645Z,5.35
2022-10-20T07:58:03.325Z,4.55
2022-10-20T08:00:05.363Z,4.78
2022-10-20T08:02:15.879Z,4.40
2022-10-20T08:04:17.572Z,4.90
2022-10-20T08:06:19.663Z,4.03
2022-10-20T08:08:21.477Z,4.65
2022-10-20T08:10:23.073Z,4.50
2022-10-20T08:12:24.904Z,5.00
2022-10-20T08:14:27.298Z,4.28
2022-10-20T08:16:33.831Z,4.57
2022-10-20T08:18:40.179Z,4.45
2022-10-20T08:20:41.908Z,4.40
2022-10-20T08:22:43.491Z,4.78
2022-10-20T08:24:45.668Z,4.35
2022-10-20T08:26:47.499Z,4.30
2022-10-20T08:28:50.808Z,4.13
2022-10-20T08:30:52.346Z,4.15
2022-10-20T08:32:54.457Z,4.22
2022-10-20T08:34:55.924Z,4.65
2022-10-20T08:36:57.969Z,4.45
2022-10-20T08:39:03.493Z,4.18
2022-10-20T08:41:16.376Z,3.80
2022-10-20T08:43:19.597Z,4.78
2022-10-20T08:45:24.212Z,4.50
2022-10-20T08:47:37.106Z,4.10
2022-10-20T08:49:39.001Z,4.18
2022-10-20T08:51:42.645Z,4.25
2022-10-20T08:53:45.455Z,4.30
2022-10-20T08:55:47.394Z,3.65
2022-10-20T08:57:49.560Z,4.05
2022-10-20T08:59:54.000Z,3.97
2022-10-20T09:01:57.821Z,4.13
2022-10-20T09:04:23.514Z,4.03
2022-10-20T09:06:25.573Z,3.95
2022-10-20T09:08:31.044Z,4.05
2022-10-20T09:10:44.941Z,3.67
2022-10-20T09:12:48.901Z,4.00
2022-10-20T09:14:50.658Z,3.95
2022-10-20T09:17:00.224Z,4.25
2022-10-20T09:19:02.620Z,4.22
2022-10-20T09:21:13.364Z,4.18
2022-10-20T09:23:39.518Z,4.13
2022-10-20T09:25:42.188Z,4.35
2022-10-20T09:27:45.282Z,3.85
2022-10-20T09:29:46.955Z,3.67
2022-10-20T09:31:54.436Z,4.45
2022-10-20T09:33:55.966Z,4.50
2022-10-20T09:36:04.304Z,4.20
2022-10-20T09:38:29.906Z,4.00
2022-10-20T09:40:32.354Z,4.05
2022-10-20T09:42:40.133Z,3.83
2022-10-20T09:44:47.626Z,3.72
2022-10-20T09:46:53.249Z,3.80
2022-10-20T09:48:55.404Z,3.65
2022-10-20T09:50:58.768Z,4.35
2022-10-20T09:53:04.451Z,3.90
2022-10-20T09:55:20.142Z,4.10
2022-10-20T09:57:23.064Z,3.60
2022-10-20T09:59:34.456Z,4.03
2022-10-20T10:01:54.592Z,3.97
2022-10-20T10:03:59.941Z,3.58
2022-10-20T10:06:39.891Z,3.38
2022-10-20T10:08:44.962Z,3.70
2022-10-20T10:11:14.208Z,4.00
2022-10-20T10:13:26.560Z,3.85
2022-10-20T10:15:34.531Z,3.80
2022-10-20T10:17:39.271Z,3.70
2022-10-20T10:19:41.174Z,4.10
2022-10-20T10:21:51.945Z,3.40
2022-10-20T10:24:02.194Z,3.03
2022-10-20T10:26:24.120Z,3.40
2022-10-20T10:28:31.131Z,3.38
2022-10-20T10:30:38.374Z,3.17
2022-10-20T10:32:44.250Z,3.60
2022-10-20T10:35:11.994Z,3.75
2022-10-20T10:37:17.306Z,3.33
2022-10-20T10:39:19.113Z,3.17
2022-10-20T10:41:41.852Z,3.75
2022-10-20T10:44:00.386Z,3.00
2022-10-20T10:46:36.989Z,3.78
2022-10-20T10:48:54.116Z,3.55
2022-10-20T10:51:02.502Z,3.17
2022-10-20T10:53:16.375Z,3.15
2022-10-20T10:55:47.812Z,3.03
2022-10-20T10:58:08.095Z,3.10
2022-10-20T11:00:27.899Z,3.00
2022-10-20T11:02:39.359Z,3.28
2022-10-20T11:04:58.425Z,2.90
2022-10-20T11:07:25.136Z,2.92
2022-10-20T11:09:48.404Z,3.53
2022-10-20T11:12:29.595Z,3.05
2022-10-20T11:14:47.181Z,3.53
2022-10-20T11:17:02.250Z,3.20
2022-10-20T11:19:09.807Z,3.10
2022-10-20T11:21:22.841Z,3.05
2022-10-20T11:23:46.794Z,2.78
2022-10-20T11:25:57.302Z,2.50
2022-10-20T11:28:00.198Z,2.78
2022-10-20T11:30:08.996Z,3.05
2022-10-20T11:32:41.326Z,3.45
2022-10-20T11:35:13.735Z,2.90
2022-10-20T11:37:36.988Z,2.33
2022-10-20T11:39:55.836Z,3.38
2022-10-20T11:42:05.406Z,3.10
2022-10-20T11:44:14.351Z,3.10
2022-10-20T11:46:20.831Z,2.72
2022-10-20T11:48:45.588Z,2.90
2022-10-20T11:53:36.694Z,3.45
2022-10-20T11:55:59.394Z,2.80
2022-10-20T11:58:23.985Z,3.00
2022-10-20T12:00:46.259Z,2.83
2022-10-20T12:02:54.301Z,2.80
2022-10-20T12:05:18.418Z,2.90
2022-10-20T12:07:32.109Z,2.80
2022-10-20T12:09:54.344Z,3.53
2022-10-20T12:12:03.623Z,2.83
2022-10-20T12:14:14.126Z,2.88
2022-10-20T12:16:54.728Z,2.85
2022-10-20T12:19:17.693Z,3.10
2022-10-20T12:21:54.094Z,2.83
2022-10-20T12:24:02.887Z,2.50
2022-10-20T12:26:04.567Z,3.00
2022-10-20T12:28:22.737Z,2.80
2022-10-20T12:30:39.790Z,2.45
2022-10-20T12:32:55.800Z,2.80
2022-10-20T12:35:03.629Z,2.70
2022-10-20T12:37:35.217Z,3.05
2022-10-20T12:39:37.281Z,2.75
2022-10-20T12:41:54.068Z,2.65
2022-10-20T12:44:01.716Z,2.78
2022-10-20T12:46:08.123Z,2.65
2022-10-20T12:48:22.914Z,2.60
2022-10-20T12:50:40.505Z,2.47
2022-10-20T12:52:42.322Z,2.60
2022-10-20T12:54:48.490Z,2.55
2022-10-20T12:56:52.445Z,2.25
2022-10-20T12:59:31.042Z,2.35
2022-10-20T13:02:10.944Z,2.70
2022-10-20T13:04:51.146Z,2.88
2022-10-20T13:06:52.962Z,3.10
2022-10-20T13:09:03.886Z,2.75
2022-10-20T13:11:35.857Z,3.42
2022-10-20T13:13:45.321Z,3.15
2022-10-20T13:15:53.464Z,3.00
2022-10-20T13:18:03.068Z,2.65
2022-10-20T13:20:36.238Z,2.72
2022-10-20T13:22:46.663Z,2.58
2022-10-20T13:24:48.661Z,2.45
2022-10-20T13:26:56.176Z,2.28
2022-10-20T13:29:01.282Z,2.72
2022-10-20T13:31:14.731Z,2.88
2022-10-20T13:33:45.024Z,3.00
2022-10-20T13:36:05.378Z,2.65
2022-10-20T13:38:14.928Z,2.63
2022-10-20T13:41:13.006Z,2.92
2022-10-20T13:43:38.546Z,2.95
2022-10-20T13:45:42.942Z,2.38
2022-10-20T13:48:13.664Z,2.58
2022-10-20T13:50:26.609Z,3.35
2022-10-20T13:52:32.575Z,2.42
2022-10-20T13:54:37.847Z,2.50
2022-10-20T13:56:47.728Z,2.65
2022-10-20T13:59:06.589Z,2.30
2022-10-20T14:01:19.292Z,2.72
2022-10-20T14:03:20.894Z,2.50
2022-10-20T14:05:23.647Z,2.80
2022-10-20T14:07:25.189Z,2.70
2022-10-20T14:09:29.816Z,2.63
2022-10-20T14:11:32.069Z,2.50
2022-10-20T14:13:35.862Z,2.60
2022-10-20T14:15:37.911Z,2.75
2022-10-20T14:17:40.799Z,2.40
2022-10-20T14:19:46.028Z,2.45
2022-10-20T14:21:50.904Z,2.67
2022-10-20T14:23:52.538Z,2.85
2022-10-20T14:25:54.969Z,2.30
2022-10-20T14:27:57.434Z,2.50
2022-10-20T14:30:02.993Z,2.58
2022-10-20T14:32:06.485Z,2.70
2022-10-20T14:34:20.048Z,2.72
2022-10-20T14:38:37.690Z,2.47
2022-10-20T14:40:39.438Z,2.80
2022-10-20T14:42:44.450Z,2.70
2022-10-20T14:44:46.084Z,2.47
2022-10-20T14:46:48.077Z,3.28
2022-10-20T14:48:50.735Z,2.88
2022-10-20T14:50:53.938Z,2.95
2022-10-20T14:52:55.676Z,3.15
2022-10-20T14:54:57.759Z,3.17
2022-10-20T14:57:04.208Z,3.10
2022-10-20T14:59:14.713Z,2.97
2022-10-20T15:01:19.823Z,3.13
2022-10-20T15:03:21.384Z,2.95
2022-10-20T15:05:26.010Z,3.08
2022-10-20T15:07:33.181Z,2.70
2022-10-20T15:09:41.481Z,3.00
2022-10-20T15:11:46.853Z,2.80
2022-10-20T15:13:53.639Z,3.28
2022-10-20T15:15:57.635Z,2.70
2022-10-20T15:18:16.414Z,3.13
2022-10-20T15:20:30.308Z,2.67
2022-10-20T15:22:32.063Z,2.70
2022-10-20T15:24:33.698Z,2.55
2022-10-20T15:26:35.313Z,2.90
2022-10-20T15:28:42.945Z,2.63
2022-10-20T15:30:44.897Z,2.63
2022-10-20T15:32:48.163Z,2.88
2022-10-20T15:34:49.756Z,3.30
2022-10-20T15:36:51.627Z,3.10
2022-10-20T15:39:00.200Z,2.88
2022-10-20T15:43:26.612Z,3.60
2022-10-20T15:45:34.201Z,3.22
2022-10-20T15:47:35.966Z,3.40
2022-10-20T15:49:37.479Z,3.85
2022-10-20T15:51:42.854Z,3.85
2022-10-20T15:53:46.939Z,3.92
2022-10-20T15:55:48.626Z,4.25
2022-10-20T15:57:51.993Z,3.75
2022-10-20T15:59:53.503Z,3.83
2022-10-20T16:01:55.200Z,3.70
2022-10-20T16:03:57.053Z,3.80
2022-10-20T16:05:58.619Z,3.60
2022-10-20T16:08:00.298Z,3.45
2022-10-20T16:10:02.109Z,2.97
2022-10-20T16:12:03.970Z,3.05
2022-10-20T16:14:06.150Z,3.10
2022-10-20T16:16:11.807Z,3.50
2022-10-20T16:18:13.451Z,3.30
2022-10-20T16:20:15.282Z,3.30
2022-10-20T16:22:16.857Z,3.20
2022-10-20T16:24:22.531Z,3.10
2022-10-20T16:26:26.991Z,3.50
2022-10-20T16:28:31.080Z,3.53
2022-10-20T16:30:33.359Z,3.30
2022-10-20T16:32:38.037Z,3.25
2022-10-20T16:34:41.538Z,3.28
2022-10-20T16:36:46.212Z,3.70
2022-10-20T16:38:47.873Z,3.47
2022-10-20T16:41:07.288Z,3.20
2022-10-20T16:43:12.064Z,3.08
2022-10-20T16:45:13.904Z,3.42
2022-10-20T16:47:15.634Z,3.05
2022-10-20T16:49:17.210Z,3.55
2022-10-20T16:51:26.289Z,3.55
2022-10-20T16:53:30.890Z,4.00
2022-10-20T16:55:32.489Z,4.32
2022-10-20T16:57:40.519Z,4.85
2022-10-20T16:59:43.214Z,5.25
2022-10-20T17:01:45.031Z,5.30
2022-10-20T17:03:49.328Z,5.03
2022-10-20T17:05:56.166Z,5.10
2022-10-20T17:07:58.553Z,5.07
2022-10-20T17:10:00.120Z,5.07
2022-10-20T17:12:01.815Z,4.53
2022-10-20T17:14:03.494Z,4.90
2022-10-20T17:16:07.778Z,5.20
2022-10-20T17:18:09.463Z,5.07
2022-10-20T17:20:11.238Z,5.20
2022-10-20T17:22:13.142Z,5.00
2022-10-20T17:24:14.888Z,5.00
2022-10-20T17:26:22.689Z,4.85
2022-10-20T17:28:24.454Z,5.03
2022-10-20T17:30:26.083Z,4.30
2022-10-20T17:32:28.042Z,4.07
2022-10-20T17:34:29.791Z,4.30
2022-10-20T17:36:32.594Z,4.20
2022-10-20T17:38:35.503Z,4.10
2022-10-20T17:40:38.037Z,3.72
2022-10-20T17:42:39.979Z,3.70
2022-10-20T17:44:41.695Z,3.78
2022-10-20T17:46:43.468Z,4.00
2022-10-20T17:48:46.107Z,3.85
2022-10-20T17:50:47.707Z,3.78
2022-10-20T17:52:49.299Z,3.97
2022-10-20T17:54:50.858Z,4.45
2022-10-20T17:56:52.646Z,4.65
2022-10-20T17:58:56.355Z,4.50
2022-10-20T18:01:23.433Z,4.22
2022-10-20T18:03:25.321Z,4.18
2022-10-20T18:05:27.035Z,4.20
2022-10-20T18:07:28.691Z,4.68
2022-10-20T18:09:30.194Z,5.15
2022-10-20T18:11:33.436Z,5.22
2022-10-20T18:13:35.092Z,5.88
2022-10-20T18:15:41.657Z,6.80
2022-10-20T18:17:43.217Z,8.75
2022-10-20T18:19:44.813Z,9.32
2022-10-20T18:21:47.275Z,10.27
2022-10-20T18:23:48.800Z,10.73
2022-10-20T18:25:50.265Z,12.35
2022-10-20T18:27:52.660Z,11.10
2022-10-20T18:29:54.421Z,11.77
2022-10-20T18:31:56.059Z,11.02
2022-10-20T18:34:04.298Z,12.30
2022-10-20T18:36:10.441Z,14.60
2022-10-20T18:38:14.919Z,14.88
2022-10-20T18:40:16.505Z,16.50
2022-10-20T18:42:18.352Z,16.23
2022-10-20T18:44:20.255Z,16.30
2022-10-20T18:46:24.960Z,14.27
2022-10-20T18:48:27.095Z,13.73
2022-10-20T18:50:28.606Z,14.65
2022-10-20T18:52:30.626Z,14.00
2022-10-20T18:54:32.229Z,14.00
2022-10-20T18:56:35.286Z,13.85
2022-10-20T18:58:41.505Z,12.80
2022-10-20T19:00:43.264Z,11.88
2022-10-20T19:02:49.520Z,12.82
2022-10-20T19:04:51.042Z,14.45
2022-10-20T19:06:53.261Z,12.95
2022-10-20T19:09:03.661Z,11.90
2022-10-20T19:11:08.098Z,12.10
2022-10-20T19:13:09.998Z,12.38
2022-10-20T19:15:11.707Z,12.68
2022-10-20T19:17:13.567Z,12.45
2022-10-20T19:19:16.161Z,12.88
2022-10-20T19:23:25.924Z,11.52
2022-10-20T19:25:27.678Z,11.57
2022-10-20T19:27:29.547Z,11.57
2022-10-20T19:29:31.474Z,10.82
2022-10-20T19:31:42.564Z,11.02
2022-10-20T19:33:45.007Z,10.90
2022-10-20T19:35:49.468Z,10.68
2022-10-20T19:37:51.022Z,10.85
2022-10-20T19:39:52.703Z,9.25
2022-10-20T19:41:56.694Z,9.95
2022-10-20T19:44:00.690Z,8.93
2022-10-20T19:46:03.435Z,9.43
2022-10-20T19:48:07.561Z,9.82
2022-10-20T19:50:09.254Z,9.57
2022-10-20T19:52:11.471Z,9.50
2022-10-20T19:54:13.382Z,9.35
2022-10-20T19:56:15.843Z,8.95
2022-10-20T19:58:19.491Z,9.07
2022-10-20T20:00:21.147Z,8.27
2022-10-20T20:02:22.702Z,8.25
2022-10-20T20:04:24.730Z,7.97
2022-10-20T20:06:28.461Z,7.72
2022-10-20T20:08:30.905Z,7.18
2022-10-20T20:10:33.287Z,6.97
2022-10-20T20:12:34.942Z,7.45
2022-10-20T20:14:36.474Z,7.03
2022-10-20T20:16:38.644Z,7.45
2022-10-20T20:18:40.218Z,8.23
2022-10-20T20:20:44.108Z,8.00
2022-10-20T20:22:45.854Z,7.97
2022-10-20T20:24:47.389Z,8.20
2022-10-20T20:26:50.245Z,8.48
2022-10-20T20:28:56.128Z,7.90
2022-10-20T20:31:02.486Z,8.13
2022-10-20T20:33:04.898Z,8.32
2022-10-20T20:35:07.227Z,7.80
2022-10-20T20:37:08.802Z,7.68
2022-10-20T20:39:10.626Z,8.07
2022-10-20T20:41:17.683Z,6.90
2022-10-20T20:43:20.032Z,6.80
2022-10-20T20:45:21.705Z,6.88
2022-10-20T20:47:25.434Z,6.28
2022-10-20T20:49:27.058Z,7.65
2022-10-20T20:51:33.387Z,6.82
2022-10-20T20:53:36.401Z,7.53
2022-10-20T20:55:37.997Z,6.75
2022-10-20T20:57:39.901Z,6.72
2022-10-20T20:59:41.921Z,6.28
2022-10-20T21:01:45.203Z,6.10
2022-10-20T21:03:47.072Z,6.75
2022-10-20T21:05:48.680Z,6.78
2022-10-20T21:07:50.303Z,6.95
2022-10-20T21:09:51.803Z,6.30
2022-10-20T21:11:55.994Z,6.22
2022-10-20T21:14:00.628Z,6.95
2022-10-20T21:16:20.657Z,6.82
2022-10-20T21:18:22.390Z,6.35
2022-10-20T21:20:24.136Z,6.53
2022-10-20T21:22:25.652Z,6.00
2022-10-20T21:24:27.456Z,6.13
2022-10-20T21:26:30.153Z,6.00
2022-10-20T21:28:32.041Z,6.13
2022-10-20T21:30:34.282Z,6.07
2022-10-20T21:32:36.286Z,6.40
2022-10-20T21:34:37.917Z,5.25
2022-10-20T21:36:40.219Z,5.93
2022-10-20T21:38:43.201Z,6.45
2022-10-20T21:40:45.071Z,6.50
2022-10-20T21:42:46.772Z,6.40
2022-10-20T21:44:50.074Z,6.75
2022-10-20T21:46:52.193Z,8.98
2022-10-20T21:48:57.743Z,14.02
2022-10-20T21:50:59.316Z,24.92
2022-10-20T21:53:01.075Z,23.85
2022-10-20T21:55:02.563Z,21.17
2022-10-20T21:57:04.503Z,16.73
2022-10-20T21:59:08.387Z,13.50
2022-10-20T22:01:14.418Z,10.85
2022-10-20T22:03:15.993Z,8.40
2022-10-20T22:05:17.641Z,7.55
2022-10-20T22:07:19.317Z,7.47
2022-10-20T22:09:21.653Z,14.00
2022-10-20T22:11:32.310Z,19.35
2022-10-20T22:13:34.488Z,19.10
2022-10-20T22:15:39.742Z,17.75
2022-10-20T22:17:41.431Z,12.80
2022-10-20T22:19:43.026Z,10.15
2022-10-20T22:21:46.905Z,9.18
2022-10-20T22:23:51.579Z,7.28
2022-10-20T22:25:53.856Z,7.65
2022-10-20T22:27:55.687Z,6.63
2022-10-20T22:29:57.661Z,6.28
2022-10-20T22:31:59.359Z,6.03
2022-10-20T22:34:00.937Z,6.10
2022-10-20T22:36:03.768Z,5.95
2022-10-20T22:38:05.370Z,5.75
2022-10-20T22:40:07.663Z,5.72
2022-10-20T22:42:12.406Z,5.32
2022-10-20T22:44:14.026Z,4.85
2022-10-20T22:46:16.309Z,5.10
2022-10-20T22:48:18.025Z,4.90
2022-10-20T22:50:20.118Z,4.70
2022-10-20T22:52:21.744Z,5.03
2022-10-20T22:54:23.403Z,5.18
2022-10-20T22:56:25.487Z,5.60
2022-10-20T22:58:27.175Z,5.65
2022-10-20T23:00:28.929Z,5.55
2022-10-20T23:02:30.446Z,5.72
2022-10-20T23:04:32.359Z,6.13
2022-10-20T23:06:34.508Z,5.43
2022-10-20T23:08:44.793Z,5.63
2022-10-20T23:11:02.744Z,5.68
2022-10-20T23:13:04.418Z,5.18
2022-10-20T23:15:06.907Z,5.55
2022-10-20T23:17:08.547Z,5.47
2022-10-20T23:19:10.160Z,5.15
2022-10-20T23:21:13.884Z,5.63
2022-10-20T23:23:15.610Z,4.80
2022-10-20T23:25:17.445Z,5.00
2022-10-20T23:27:22.595Z,4.60
2022-10-20T23:29:24.303Z,4.88
2022-10-20T23:31:25.960Z,4.50
2022-10-20T23:33:27.553Z,5.53
2022-10-20T23:35:29.253Z,4.97
2022-10-20T23:37:30.904Z,4.85
2022-10-20T23:39:32.507Z,4.88
2022-10-20T23:41:34.217Z,4.63
2022-10-20T23:45:42.923Z,4.97
2022-10-20T23:47:44.709Z,4.72
2022-10-20T23:49:46.458Z,4.85
2022-10-20T23:51:48.241Z,4.80
2022-10-20T23:53:50.070Z,4.82
2022-10-20T23:55:51.766Z,4.97
2022-10-20T23:57:53.398Z,4.47
2022-10-20T23:59:55.003Z,4.40
